createdAt,value
2022-12-29T00:02:08.511Z,998.4344
2022-12-29T00:07:08.867Z,998.3889
2022-12-29T00:12:09.071Z,998.2408
2022-12-29T00:17:08.478Z,998.2486
2022-12-29T00:22:19.808Z,998.1964
2022-12-29T00:27:25.851Z,998.2988
2022-12-29T00:32:20.167Z,998.0859
2022-12-29T00:37:08.600Z,998.0673
2022-12-29T00:42:23.594Z,998.0346
2022-12-29T00:47:08.491Z,997.8485
2022-12-29T00:52:09.674Z,997.7676
2022-12-29T00:57:09.081Z,997.7749
2022-12-29T01:02:13.538Z,997.5817
2022-12-29T01:07:08.426Z,997.3908
2022-12-29T01:12:09.233Z,997.3041
2022-12-29T01:17:09.059Z,997.3325
2022-12-29T01:22:08.566Z,997.2356
2022-12-29T01:27:08.645Z,997.3088
2022-12-29T01:32:08.802Z,997.3019
2022-12-29T01:37:08.414Z,997.3272
2022-12-29T01:42:08.592Z,997.2882
2022-12-29T01:47:08.414Z,997.5108
2022-12-29T01:52:10.083Z,997.4973
2022-12-29T01:57:10.210Z,997.6763
2022-12-29T02:02:09.655Z,997.5891
2022-12-29T02:07:10.503Z,997.5363
2022-12-29T02:12:10.896Z,997.4335
2022-12-29T02:17:12.216Z,997.5341
2022-12-29T02:22:12.726Z,997.4009
2022-12-29T02:27:27.053Z,997.3618
2022-12-29T02:32:12.552Z,997.3561
2022-12-29T02:37:11.611Z,997.2433
2022-12-29T02:42:14.137Z,997.2874
2022-12-29T02:47:14.348Z,997.3415
2022-12-29T02:52:10.300Z,997.2921
2022-12-29T02:57:09.817Z,997.3391
2022-12-29T03:02:23.225Z,997.3369
2022-12-29T03:07:13.695Z,997.4017
2022-12-29T03:12:15.195Z,997.6044
2022-12-29T03:17:12.286Z,997.4412
2022-12-29T03:22:20.478Z,997.3809
2022-12-29T03:27:09.984Z,997.3244
2022-12-29T03:32:09.861Z,997.3156
2022-12-29T03:37:11.269Z,997.3557
2022-12-29T03:42:10.680Z,997.5061
2022-12-29T03:47:08.652Z,997.6078
2022-12-29T03:52:08.641Z,997.6572
2022-12-29T03:57:08.391Z,997.4899
2022-12-29T04:02:08.526Z,997.5933
2022-12-29T04:07:08.365Z,997.6944
2022-12-29T04:12:11.643Z,997.6866
2022-12-29T04:17:08.372Z,997.6831
2022-12-29T04:22:08.293Z,997.6272
2022-12-29T04:27:08.722Z,997.6135
2022-12-29T04:32:08.455Z,997.5694
2022-12-29T04:37:11.148Z,997.6016
2022-12-29T04:42:08.412Z,997.7288
2022-12-29T04:47:08.451Z,997.7017
2022-12-29T04:52:09.062Z,997.5367
2022-12-29T04:57:08.366Z,997.6269
2022-12-29T05:02:08.366Z,997.8526
2022-12-29T05:07:08.465Z,997.7612
2022-12-29T05:12:08.676Z,997.8387
2022-12-29T05:17:08.357Z,997.6859
2022-12-29T05:22:09.370Z,998.0219
2022-12-29T05:27:08.343Z,998.0164
2022-12-29T05:32:08.660Z,997.9495
2022-12-29T05:37:08.246Z,998.0962
2022-12-29T05:42:08.456Z,998.2064
2022-12-29T05:47:08.679Z,997.9422
2022-12-29T05:52:08.413Z,998.0726
2022-12-29T05:57:08.379Z,997.9316
2022-12-29T06:02:09.184Z,998.0823
2022-12-29T06:07:08.315Z,998.245
2022-12-29T06:12:08.530Z,998.2475
2022-12-29T06:17:08.530Z,998.1542
2022-12-29T06:22:08.365Z,998.2147
2022-12-29T06:27:08.505Z,998.3173
2022-12-29T06:32:08.400Z,998.2781
2022-12-29T06:37:08.630Z,998.4462
2022-12-29T06:42:08.581Z,998.3242
2022-12-29T06:47:08.362Z,998.5044
2022-12-29T06:52:12.788Z,998.3259
2022-12-29T06:57:08.332Z,998.4346
2022-12-29T07:02:08.440Z,998.3536
2022-12-29T07:07:08.428Z,998.3244
2022-12-29T07:12:08.450Z,998.318
2022-12-29T07:17:08.489Z,998.4219
2022-12-29T07:22:08.447Z,998.3713
2022-12-29T07:27:08.502Z,998.395
2022-12-29T07:32:08.624Z,998.4677
2022-12-29T07:37:08.343Z,998.4783
2022-12-29T07:42:08.381Z,998.3964
2022-12-29T07:47:08.324Z,998.4236
2022-12-29T07:52:08.648Z,998.5469
2022-12-29T07:57:08.649Z,998.4816
2022-12-29T08:02:08.523Z,998.4523
2022-12-29T08:07:08.318Z,998.5567
2022-12-29T08:12:08.556Z,998.5731
2022-12-29T08:17:10.843Z,998.5666
2022-12-29T08:22:08.402Z,998.6768
2022-12-29T08:27:16.173Z,998.7225
2022-12-29T08:32:08.542Z,998.7188
2022-12-29T08:37:08.277Z,998.8553
2022-12-29T08:42:08.275Z,998.9135
2022-12-29T08:47:08.824Z,998.9741
2022-12-29T08:52:08.812Z,999.2118
2022-12-29T08:57:08.404Z,999.0278
2022-12-29T09:02:08.412Z,999.115
2022-12-29T09:07:10.637Z,999.0131
2022-12-29T09:12:08.490Z,999.2081
2022-12-29T09:17:19.578Z,999.0986
2022-12-29T09:22:08.659Z,999.4285
2022-12-29T09:27:08.458Z,999.5793
2022-12-29T09:32:11.551Z,999.5619
2022-12-29T09:37:09.322Z,999.6088
2022-12-29T09:42:12.248Z,999.7434
2022-12-29T09:47:08.819Z,999.9403
2022-12-29T09:52:10.082Z,999.9246
2022-12-29T09:57:08.307Z,1000.096
2022-12-29T10:02:16.795Z,1000.176
2022-12-29T10:07:30.777Z,1000.386
2022-12-29T10:12:17.827Z,1000.452
2022-12-29T10:17:16.221Z,1000.457
2022-12-29T10:22:14.073Z,1000.565
2022-12-29T10:27:08.422Z,1000.72
2022-12-29T10:32:11.009Z,1000.718
2022-12-29T10:37:13.591Z,1000.817
2022-12-29T10:42:13.771Z,1000.971
2022-12-29T10:47:10.203Z,1001.074
2022-12-29T10:52:08.871Z,1001.222
2022-12-29T10:57:12.287Z,1001.238
2022-12-29T11:02:19.507Z,1001.355
2022-12-29T11:07:14.999Z,1001.483
2022-12-29T11:12:22.161Z,1001.545
2022-12-29T11:17:09.350Z,1001.762
2022-12-29T11:22:17.668Z,1001.689
2022-12-29T11:27:18.577Z,1001.805
2022-12-29T11:32:15.835Z,1001.821
2022-12-29T11:37:09.737Z,1002.01
2022-12-29T11:42:10.295Z,1001.965
2022-12-29T11:47:08.410Z,1002.168
2022-12-29T11:52:08.210Z,1002.16
2022-12-29T11:57:14.258Z,1002.183
2022-12-29T12:02:15.155Z,1002.245
2022-12-29T12:07:13.701Z,1002.268
2022-12-29T12:12:09.506Z,1002.334
2022-12-29T12:17:11.076Z,1002.329
2022-12-29T12:22:13.209Z,1002.39
2022-12-29T12:27:15.726Z,1002.642
2022-12-29T12:32:13.967Z,1002.518
2022-12-29T12:37:20.516Z,1002.508
2022-12-29T12:42:17.753Z,1002.686
2022-12-29T12:47:19.668Z,1002.714
2022-12-29T12:52:11.345Z,1002.726
2022-12-29T12:57:15.224Z,1002.73
2022-12-29T13:02:18.797Z,1002.65
2022-12-29T13:07:12.486Z,1002.828
2022-12-29T13:12:15.746Z,1002.876
2022-12-29T13:17:13.101Z,1002.916
2022-12-29T13:22:13.346Z,1002.955
2022-12-29T13:27:12.081Z,1002.957
2022-12-29T13:32:17.108Z,1002.988
2022-12-29T13:37:09.515Z,1003.036
2022-12-29T13:42:08.951Z,1003.088
2022-12-29T13:47:11.380Z,1003.076
2022-12-29T13:52:12.962Z,1003.179
2022-12-29T13:57:12.805Z,1003.003
2022-12-29T14:02:13.393Z,1002.962
2022-12-29T14:07:09.227Z,1002.952
2022-12-29T14:12:18.475Z,1003.036
2022-12-29T14:17:17.369Z,1002.98
2022-12-29T14:22:09.147Z,1003.052
2022-12-29T14:27:18.012Z,1003.105
2022-12-29T14:32:18.582Z,1003.143
2022-12-29T14:37:08.168Z,1003.066
2022-12-29T14:42:09.177Z,1003.105
2022-12-29T14:47:10.477Z,1003.193
2022-12-29T14:52:18.929Z,1003.137
2022-12-29T14:57:09.395Z,1003.177
2022-12-29T15:02:17.134Z,1003.184
2022-12-29T15:07:13.175Z,1003.164
2022-12-29T15:12:16.447Z,1003.191
2022-12-29T15:17:14.574Z,1003.337
2022-12-29T15:22:08.235Z,1003.375
2022-12-29T15:27:09.514Z,1003.546
2022-12-29T15:32:18.485Z,1003.525
2022-12-29T15:37:10.644Z,1003.563
2022-12-29T15:42:14.566Z,1003.567
2022-12-29T15:47:11.439Z,1003.62
2022-12-29T15:52:10.766Z,1003.622
2022-12-29T15:57:08.223Z,1003.614
2022-12-29T16:02:14.650Z,1003.767
2022-12-29T16:07:09.645Z,1003.747
2022-12-29T16:12:09.643Z,1003.874
2022-12-29T16:17:09.895Z,1003.932
2022-12-29T16:22:13.933Z,1003.928
2022-12-29T16:27:12.618Z,1004.01
2022-12-29T16:32:18.216Z,1004.014
2022-12-29T16:37:08.895Z,1004
2022-12-29T16:42:18.062Z,1004.001
2022-12-29T16:47:21.789Z,1004.112
2022-12-29T16:52:15.948Z,1004.261
2022-12-29T16:57:08.150Z,1004.288
2022-12-29T17:02:11.016Z,1004.43
2022-12-29T17:07:09.566Z,1004.447
2022-12-29T17:12:11.504Z,1004.527
2022-12-29T17:17:14.653Z,1004.58
2022-12-29T17:22:09.851Z,1004.686
2022-12-29T17:27:08.576Z,1004.762
2022-12-29T17:32:09.612Z,1004.862
2022-12-29T17:37:14.705Z,1004.901
2022-12-29T17:42:09.202Z,1005.008
2022-12-29T17:47:08.333Z,1004.978
2022-12-29T17:52:09.207Z,1005.019
2022-12-29T17:57:08.090Z,1005.173
2022-12-29T18:02:15.184Z,1005.165
2022-12-29T18:07:09.748Z,1005.213
2022-12-29T18:12:08.418Z,1005.264
2022-12-29T18:17:13.012Z,1005.301
2022-12-29T18:22:08.193Z,1005.277
2022-12-29T18:27:15.792Z,1005.391
2022-12-29T18:32:08.334Z,1005.492
2022-12-29T18:37:08.033Z,1005.56
2022-12-29T18:42:08.318Z,1005.713
2022-12-29T18:47:08.305Z,1005.753
2022-12-29T18:52:10.646Z,1005.812
2022-12-29T18:57:08.318Z,1005.775
2022-12-29T19:02:08.149Z,1005.788
2022-12-29T19:07:08.335Z,1005.808
2022-12-29T19:12:11.187Z,1005.808
2022-12-29T19:17:08.172Z,1005.784
2022-12-29T19:22:10.953Z,1005.859
2022-12-29T19:27:09.177Z,1005.914
2022-12-29T19:32:08.358Z,1005.937
2022-12-29T19:37:08.246Z,1006.014
2022-12-29T19:42:08.171Z,1005.99
2022-12-29T19:47:08.306Z,1006.119
2022-12-29T19:52:08.524Z,1006.189
2022-12-29T19:57:08.314Z,1006.178
2022-12-29T20:02:08.394Z,1006.139
2022-12-29T20:07:12.914Z,1006.179
2022-12-29T20:12:08.540Z,1006.191
2022-12-29T20:17:11.817Z,1006.192
2022-12-29T20:22:12.829Z,1006.269
2022-12-29T20:27:09.040Z,1006.281
2022-12-29T20:32:08.565Z,1006.197
2022-12-29T20:37:08.399Z,1006.202
2022-12-29T20:42:08.229Z,1006.358
2022-12-29T20:47:08.496Z,1006.592
2022-12-29T20:52:08.880Z,1006.732
2022-12-29T20:57:09.954Z,1006.832
2022-12-29T21:02:08.268Z,1006.919
2022-12-29T21:07:08.200Z,1006.873
2022-12-29T21:12:08.793Z,1006.862
2022-12-29T21:17:08.248Z,1007.026
2022-12-29T21:22:08.148Z,1007.035
2022-12-29T21:27:10.691Z,1007.085
2022-12-29T21:32:08.377Z,1007.058
2022-12-29T21:37:08.564Z,1007.112
2022-12-29T21:42:08.223Z,1007.186
2022-12-29T21:47:08.216Z,1007.332
2022-12-29T21:52:08.297Z,1007.452
2022-12-29T21:57:08.544Z,1007.498
2022-12-29T22:02:20.310Z,1007.525
2022-12-29T22:07:20.756Z,1007.836
2022-12-29T22:12:19.622Z,1007.868
2022-12-29T22:17:13.817Z,1007.908
2022-12-29T22:22:08.218Z,1008.033
2022-12-29T22:27:07.984Z,1008.055
2022-12-29T22:32:08.154Z,1008.143
2022-12-29T22:37:08.231Z,1008.161
2022-12-29T22:42:08.064Z,1008.26
2022-12-29T22:47:09.121Z,1008.255
2022-12-29T22:52:08.238Z,1008.282
2022-12-29T22:57:08.187Z,1008.389
2022-12-29T23:02:08.296Z,1008.531
2022-12-29T23:07:11.175Z,1008.536
2022-12-29T23:12:08.196Z,1008.573
2022-12-29T23:17:08.204Z,1008.658
2022-12-29T23:22:08.020Z,1008.677
2022-12-29T23:27:09.878Z,1008.656
2022-12-29T23:32:08.046Z,1008.727
2022-12-29T23:37:07.968Z,1008.811
2022-12-29T23:42:08.238Z,1008.83
2022-12-29T23:47:07.998Z,1008.846
2022-12-29T23:52:07.990Z,1008.947
2022-12-29T23:57:08.309Z,1008.883
